Hlavní strana
METAR-TAF:

METAR-TAF

Letiště :

Blytheville, Arkansas, Spojené státy americké

zeměpisná šířka: 35-58N, zeměpisná délka: 089-57W, výška: 78 m

Aktuální stav počasí

Zpráva byla vytvořena před 3 hodinami a 9 minutami, v 21:58 UTC
Západní vítr 7 kt s nárazy do 15 kt
Teplota 18°C
Vlhkost vzduchu 34%
Tlak 1014 hPa
Viditelnost: 16.1 km
Jasno

METAR: KBYH 192158Z 28007G15KT 10SM SKC 18/02 A2995

Čas: 19:07 (01:07 UTC)


TAF: chybějící

Stav a předpovědi počasí z více než 4 000 letišť (zprávy METAR a TAF).

Červené a žluté tečky na mapě představují dostupné meteorologické stanice.

Když kurzor umístíte na tečku, zobrazí se název stanice.

Pak kliknutím zobrazíte stav a předpověď počasí.

Chcete-li změnit mapu, kliknutím na zelené tlačítko se znaménkem +mapu přiblížíte, kliknutím na zelené tlačítko se znaménkem – mapu oddálíte a kliknutím na zelené šipky přejdete na sousední mapy.


METAR-TAF: